sensor_id;sensor_type;location;lat;lon;timestamp;temperature;humidity
41694;DHT22;27377;50.666;9.150;2023-01-29T00:01:50;0.00;99.90
41694;DHT22;27377;50.666;9.150;2023-01-29T00:04:17;0.00;99.90
41694;DHT22;27377;50.666;9.150;2023-01-29T00:06:42;0.00;99.90
41694;DHT22;27377;50.666;9.150;2023-01-29T00:09:08;0.00;99.90
41694;DHT22;27377;50.666;9.150;2023-01-29T00:11:34;0.00;99.90
41694;DHT22;27377;50.666;9.150;2023-01-29T00:14:00;0.00;99.90
41694;DHT22;27377;50.666;9.150;2023-01-29T00:16:26;0.00;99.90
41694;DHT22;27377;50.666;9.150;2023-01-29T00:18:52;0.00;99.90
41694;DHT22;27377;50.666;9.150;2023-01-29T00:21:19;0.00;99.90
41694;DHT22;27377;50.666;9.150;2023-01-29T00:23:47;0.10;99.90
41694;DHT22;27377;50.666;9.150;2023-01-29T00:26:13;0.00;99.90
41694;DHT22;27377;50.666;9.150;2023-01-29T00:28:39;0.00;99.90
41694;DHT22;27377;50.666;9.150;2023-01-29T00:31:16;-0.10;99.90
41694;DHT22;27377;50.666;9.150;2023-01-29T00:33:42;-0.20;99.90
41694;DHT22;27377;50.666;9.150;2023-01-29T00:36:09;-0.30;99.90
41694;DHT22;27377;50.666;9.150;2023-01-29T00:38:36;-0.40;99.90
41694;DHT22;27377;50.666;9.150;2023-01-29T00:41:09;-0.50;99.90
41694;DHT22;27377;50.666;9.150;2023-01-29T00:43:53;-0.60;99.90
41694;DHT22;27377;50.666;9.150;2023-01-29T00:46:38;-0.60;99.90
41694;DHT22;27377;50.666;9.150;2023-01-29T00:49:04;-0.60;99.90
41694;DHT22;27377;50.666;9.150;2023-01-29T00:51:30;-0.60;99.90
41694;DHT22;27377;50.666;9.150;2023-01-29T00:53:56;-0.70;99.90
41694;DHT22;27377;50.666;9.150;2023-01-29T00:56:28;-0.70;99.90
41694;DHT22;27377;50.666;9.150;2023-01-29T00:58:55;-0.70;99.90
41694;DHT22;27377;50.666;9.150;2023-01-29T01:01:21;-0.70;99.90
41694;DHT22;27377;50.666;9.150;2023-01-29T01:04:08;-0.70;99.90
41694;DHT22;27377;50.666;9.150;2023-01-29T01:06:36;-0.70;99.90
41694;DHT22;27377;50.666;9.150;2023-01-29T01:09:03;-0.80;99.90
41694;DHT22;27377;50.666;9.150;2023-01-29T01:11:47;-0.80;99.90
41694;DHT22;27377;50.666;9.150;2023-01-29T01:14:13;-0.90;99.90
41694;DHT22;27377;50.666;9.150;2023-01-29T01:16:38;-0.90;99.90
41694;DHT22;27377;50.666;9.150;2023-01-29T01:19:04;-1.00;99.90
41694;DHT22;27377;50.666;9.150;2023-01-29T01:21:32;-1.00;99.90
41694;DHT22;27377;50.666;9.150;2023-01-29T01:23:57;-1.10;99.90
41694;DHT22;27377;50.666;9.150;2023-01-29T01:26:23;-1.10;99.90
41694;DHT22;27377;50.666;9.150;2023-01-29T01:28:49;-1.20;99.90
41694;DHT22;27377;50.666;9.150;2023-01-29T01:31:15;-1.20;99.90
41694;DHT22;27377;50.666;9.150;2023-01-29T01:33:40;-1.30;99.90
41694;DHT22;27377;50.666;9.150;2023-01-29T01:36:06;-1.20;99.90
41694;DHT22;27377;50.666;9.150;2023-01-29T01:38:37;-1.30;99.90
41694;DHT22;27377;50.666;9.150;2023-01-29T01:41:16;-1.30;99.90
41694;DHT22;27377;50.666;9.150;2023-01-29T01:43:47;-1.40;99.90
41694;DHT22;27377;50.666;9.150;2023-01-29T01:46:13;-1.30;99.90
41694;DHT22;27377;50.666;9.150;2023-01-29T01:48:39;-1.30;99.90
41694;DHT22;27377;50.666;9.150;2023-01-29T01:51:05;-1.30;99.90
41694;DHT22;27377;50.666;9.150;2023-01-29T01:53:47;-1.40;99.90
41694;DHT22;27377;50.666;9.150;2023-01-29T01:56:26;-1.40;99.90
41694;DHT22;27377;50.666;9.150;2023-01-29T01:59:14;-1.50;99.90
41694;DHT22;27377;50.666;9.150;2023-01-29T02:01:43;-1.50;99.90
41694;DHT22;27377;50.666;9.150;2023-01-29T02:04:17;-1.60;99.90
41694;DHT22;27377;50.666;9.150;2023-01-29T02:07:05;-1.50;99.90
41694;DHT22;27377;50.666;9.150;2023-01-29T02:10:08;-1.50;99.90
41694;DHT22;27377;50.666;9.150;2023-01-29T02:12:35;-1.60;99.90
41694;DHT22;27377;50.666;9.150;2023-01-29T02:15:02;-1.70;99.90
41694;DHT22;27377;50.666;9.150;2023-01-29T02:17:27;-1.80;99.90
41694;DHT22;27377;50.666;9.150;2023-01-29T02:20:00;-1.80;99.90
41694;DHT22;27377;50.666;9.150;2023-01-29T02:22:42;-1.80;99.90
41694;DHT22;27377;50.666;9.150;2023-01-29T02:28:29;-1.90;99.90
41694;DHT22;27377;50.666;9.150;2023-01-29T02:31:30;-2.00;99.90
41694;DHT22;27377;50.666;9.150;2023-01-29T02:37:46;-2.20;99.90
41694;DHT22;27377;50.666;9.150;2023-01-29T02:40:43;-2.20;99.90
41694;DHT22;27377;50.666;9.150;2023-01-29T02:46:36;-2.10;99.90
41694;DHT22;27377;50.666;9.150;2023-01-29T02:49:21;-2.10;99.90
41694;DHT22;27377;50.666;9.150;2023-01-29T02:51:49;-2.10;99.90
41694;DHT22;27377;50.666;9.150;2023-01-29T02:54:22;-2.20;99.90
41694;DHT22;27377;50.666;9.150;2023-01-29T02:56:57;-2.20;99.90
41694;DHT22;27377;50.666;9.150;2023-01-29T02:59:49;-2.30;99.90
41694;DHT22;27377;50.666;9.150;2023-01-29T03:02:25;-2.20;99.90
41694;DHT22;27377;50.666;9.150;2023-01-29T03:04:59;-2.20;99.90
41694;DHT22;27377;50.666;9.150;2023-01-29T03:07:31;-2.20;99.90
41694;DHT22;27377;50.666;9.150;2023-01-29T03:10:20;-2.20;99.90
41694;DHT22;27377;50.666;9.150;2023-01-29T03:12:51;-2.10;99.90
41694;DHT22;27377;50.666;9.150;2023-01-29T03:15:30;-2.10;99.90
41694;DHT22;27377;50.666;9.150;2023-01-29T03:18:09;-2.10;99.90
41694;DHT22;27377;50.666;9.150;2023-01-29T03:20:40;-2.10;99.90
41694;DHT22;27377;50.666;9.150;2023-01-29T03:23:25;-2.10;99.90
41694;DHT22;27377;50.666;9.150;2023-01-29T03:26:03;-2.10;99.90
41694;DHT22;27377;50.666;9.150;2023-01-29T03:28:50;-2.10;99.90
41694;DHT22;27377;50.666;9.150;2023-01-29T03:31:34;-2.20;99.90
41694;DHT22;27377;50.666;9.150;2023-01-29T03:34:24;-2.30;99.90
41694;DHT22;27377;50.666;9.150;2023-01-29T03:37:00;-2.40;99.90
41694;DHT22;27377;50.666;9.150;2023-01-29T03:39:28;-2.50;99.90
41694;DHT22;27377;50.666;9.150;2023-01-29T03:41:58;-2.50;99.90
41694;DHT22;27377;50.666;9.150;2023-01-29T03:44:34;-2.50;99.90
41694;DHT22;27377;50.666;9.150;2023-01-29T03:47:20;-2.50;99.90
41694;DHT22;27377;50.666;9.150;2023-01-29T03:49:59;-2.50;99.90
41694;DHT22;27377;50.666;9.150;2023-01-29T03:52:50;-2.50;99.90
41694;DHT22;27377;50.666;9.150;2023-01-29T03:55:35;-2.60;99.90
41694;DHT22;27377;50.666;9.150;2023-01-29T03:58:23;-2.70;99.90
41694;DHT22;27377;50.666;9.150;2023-01-29T04:00:55;-2.70;99.90
41694;DHT22;27377;50.666;9.150;2023-01-29T04:03:32;-2.80;99.90
41694;DHT22;27377;50.666;9.150;2023-01-29T04:06:12;-2.90;99.90
41694;DHT22;27377;50.666;9.150;2023-01-29T04:08:57;-2.90;99.90
41694;DHT22;27377;50.666;9.150;2023-01-29T04:11:26;-2.90;99.90
41694;DHT22;27377;50.666;9.150;2023-01-29T04:13:54;-2.90;99.90
41694;DHT22;27377;50.666;9.150;2023-01-29T04:16:25;-2.90;99.90
41694;DHT22;27377;50.666;9.150;2023-01-29T04:18:52;-2.90;99.90
41694;DHT22;27377;50.666;9.150;2023-01-29T04:21:19;-3.00;99.90
41694;DHT22;27377;50.666;9.150;2023-01-29T04:23:44;-3.00;99.90
41694;DHT22;27377;50.666;9.150;2023-01-29T04:28:58;-2.90;99.90
41694;DHT22;27377;50.666;9.150;2023-01-29T04:31:31;-2.90;99.90
41694;DHT22;27377;50.666;9.150;2023-01-29T04:34:27;-2.90;99.90
41694;DHT22;27377;50.666;9.150;2023-01-29T04:37:15;-3.00;99.90
41694;DHT22;27377;50.666;9.150;2023-01-29T04:39:48;-3.10;99.90
41694;DHT22;27377;50.666;9.150;2023-01-29T04:42:31;-3.20;99.90
41694;DHT22;27377;50.666;9.150;2023-01-29T04:45:15;-3.20;99.90
41694;DHT22;27377;50.666;9.150;2023-01-29T04:50:34;-3.20;99.90
41694;DHT22;27377;50.666;9.150;2023-01-29T04:53:09;-3.20;99.90
41694;DHT22;27377;50.666;9.150;2023-01-29T04:55:57;-3.30;99.90
41694;DHT22;27377;50.666;9.150;2023-01-29T04:58:34;-3.30;99.90
41694;DHT22;27377;50.666;9.150;2023-01-29T05:01:05;-3.40;99.90
41694;DHT22;27377;50.666;9.150;2023-01-29T05:03:33;-3.40;99.90
41694;DHT22;27377;50.666;9.150;2023-01-29T05:06:01;-3.60;99.90
41694;DHT22;27377;50.666;9.150;2023-01-29T05:08:28;-3.50;99.90
41694;DHT22;27377;50.666;9.150;2023-01-29T05:10:56;-3.50;99.90
41694;DHT22;27377;50.666;9.150;2023-01-29T05:13:22;-3.40;99.90
41694;DHT22;27377;50.666;9.150;2023-01-29T05:18:19;-3.40;99.90
41694;DHT22;27377;50.666;9.150;2023-01-29T05:20:45;-3.40;99.90
41694;DHT22;27377;50.666;9.150;2023-01-29T05:23:16;-3.30;99.90
41694;DHT22;27377;50.666;9.150;2023-01-29T05:25:43;-3.20;99.90
41694;DHT22;27377;50.666;9.150;2023-01-29T05:28:09;-3.20;99.90
41694;DHT22;27377;50.666;9.150;2023-01-29T05:30:59;-3.20;99.90
41694;DHT22;27377;50.666;9.150;2023-01-29T05:33:26;-3.30;99.90
41694;DHT22;27377;50.666;9.150;2023-01-29T05:35:52;-3.40;99.90
41694;DHT22;27377;50.666;9.150;2023-01-29T05:38:18;-3.40;99.90
41694;DHT22;27377;50.666;9.150;2023-01-29T05:40:44;-3.40;99.90
41694;DHT22;27377;50.666;9.150;2023-01-29T05:43:23;-3.50;99.90
41694;DHT22;27377;50.666;9.150;2023-01-29T05:45:57;-3.50;99.90
41694;DHT22;27377;50.666;9.150;2023-01-29T05:48:23;-3.50;99.90
41694;DHT22;27377;50.666;9.150;2023-01-29T05:50:49;-3.60;99.90
41694;DHT22;27377;50.666;9.150;2023-01-29T05:53:15;-3.60;99.90
41694;DHT22;27377;50.666;9.150;2023-01-29T05:55:43;-3.70;99.90
41694;DHT22;27377;50.666;9.150;2023-01-29T05:58:10;-3.80;99.90
41694;DHT22;27377;50.666;9.150;2023-01-29T06:00:35;-3.80;99.90
41694;DHT22;27377;50.666;9.150;2023-01-29T06:03:01;-3.80;99.90
41694;DHT22;27377;50.666;9.150;2023-01-29T06:05:26;-3.90;99.90
41694;DHT22;27377;50.666;9.150;2023-01-29T06:07:52;-3.90;99.90
41694;DHT22;27377;50.666;9.150;2023-01-29T06:10:18;-3.90;99.90
41694;DHT22;27377;50.666;9.150;2023-01-29T06:12:44;-3.90;99.90
41694;DHT22;27377;50.666;9.150;2023-01-29T06:15:11;-3.90;99.90
41694;DHT22;27377;50.666;9.150;2023-01-29T06:17:37;-3.90;99.90
41694;DHT22;27377;50.666;9.150;2023-01-29T06:20:03;-3.90;99.90
41694;DHT22;27377;50.666;9.150;2023-01-29T06:22:29;-3.80;99.90
41694;DHT22;27377;50.666;9.150;2023-01-29T06:24:54;-3.80;99.90
41694;DHT22;27377;50.666;9.150;2023-01-29T06:27:20;-3.80;99.90
41694;DHT22;27377;50.666;9.150;2023-01-29T06:29:45;-3.70;99.90
41694;DHT22;27377;50.666;9.150;2023-01-29T06:32:11;-3.70;99.90
41694;DHT22;27377;50.666;9.150;2023-01-29T06:34:36;-3.70;99.90
41694;DHT22;27377;50.666;9.150;2023-01-29T06:37:02;-3.70;99.90
41694;DHT22;27377;50.666;9.150;2023-01-29T06:39:28;-3.70;99.90
41694;DHT22;27377;50.666;9.150;2023-01-29T06:41:53;-3.70;99.90
41694;DHT22;27377;50.666;9.150;2023-01-29T06:44:19;-3.70;99.90
41694;DHT22;27377;50.666;9.150;2023-01-29T06:46:45;-3.80;99.90
41694;DHT22;27377;50.666;9.150;2023-01-29T06:49:10;-3.80;99.90
41694;DHT22;27377;50.666;9.150;2023-01-29T06:51:36;-3.80;99.90
41694;DHT22;27377;50.666;9.150;2023-01-29T06:54:02;-3.80;99.90
41694;DHT22;27377;50.666;9.150;2023-01-29T06:56:28;-3.80;99.90
41694;DHT22;27377;50.666;9.150;2023-01-29T06:58:53;-3.90;99.90
41694;DHT22;27377;50.666;9.150;2023-01-29T07:01:19;-3.90;99.90
41694;DHT22;27377;50.666;9.150;2023-01-29T07:03:50;-3.80;99.90
41694;DHT22;27377;50.666;9.150;2023-01-29T07:06:16;-3.70;99.90
41694;DHT22;27377;50.666;9.150;2023-01-29T07:08:43;-3.70;99.90
41694;DHT22;27377;50.666;9.150;2023-01-29T07:11:09;-3.70;99.90
41694;DHT22;27377;50.666;9.150;2023-01-29T07:13:34;-3.70;99.90
41694;DHT22;27377;50.666;9.150;2023-01-29T07:16:01;-3.80;99.90
41694;DHT22;27377;50.666;9.150;2023-01-29T07:18:28;-3.90;99.90
41694;DHT22;27377;50.666;9.150;2023-01-29T07:20:54;-3.80;99.90
41694;DHT22;27377;50.666;9.150;2023-01-29T07:23:19;-3.80;99.90
41694;DHT22;27377;50.666;9.150;2023-01-29T07:25:45;-3.80;99.90
41694;DHT22;27377;50.666;9.150;2023-01-29T07:28:11;-3.80;99.90
41694;DHT22;27377;50.666;9.150;2023-01-29T07:30:40;-3.80;99.90
41694;DHT22;27377;50.666;9.150;2023-01-29T07:33:07;-3.80;99.90
41694;DHT22;27377;50.666;9.150;2023-01-29T07:35:41;-3.80;99.90
41694;DHT22;27377;50.666;9.150;2023-01-29T07:38:08;-3.70;99.90
41694;DHT22;27377;50.666;9.150;2023-01-29T07:40:34;-3.70;99.90
41694;DHT22;27377;50.666;9.150;2023-01-29T07:43:00;-3.60;99.90
41694;DHT22;27377;50.666;9.150;2023-01-29T07:45:27;-3.60;99.90
41694;DHT22;27377;50.666;9.150;2023-01-29T07:47:54;-3.60;99.90
41694;DHT22;27377;50.666;9.150;2023-01-29T07:50:21;-3.70;99.90
41694;DHT22;27377;50.666;9.150;2023-01-29T07:52:47;-3.70;99.90
41694;DHT22;27377;50.666;9.150;2023-01-29T07:55:13;-3.70;99.90
41694;DHT22;27377;50.666;9.150;2023-01-29T07:57:38;-3.60;99.90
41694;DHT22;27377;50.666;9.150;2023-01-29T08:00:04;-3.50;99.90
41694;DHT22;27377;50.666;9.150;2023-01-29T08:02:30;-3.50;99.90
41694;DHT22;27377;50.666;9.150;2023-01-29T08:04:56;-3.60;99.90
41694;DHT22;27377;50.666;9.150;2023-01-29T08:07:21;-3.60;99.90
41694;DHT22;27377;50.666;9.150;2023-01-29T08:09:47;-3.60;99.90
41694;DHT22;27377;50.666;9.150;2023-01-29T08:12:13;-3.50;99.90
41694;DHT22;27377;50.666;9.150;2023-01-29T08:14:39;-3.40;99.90
41694;DHT22;27377;50.666;9.150;2023-01-29T08:17:05;-3.40;99.90
41694;DHT22;27377;50.666;9.150;2023-01-29T08:19:31;-3.40;99.90
41694;DHT22;27377;50.666;9.150;2023-01-29T08:21:56;-3.30;99.90
41694;DHT22;27377;50.666;9.150;2023-01-29T08:24:22;-3.20;99.90
41694;DHT22;27377;50.666;9.150;2023-01-29T08:26:47;-3.10;99.90
41694;DHT22;27377;50.666;9.150;2023-01-29T08:29:13;-3.10;99.90
41694;DHT22;27377;50.666;9.150;2023-01-29T08:31:39;-3.00;99.90
41694;DHT22;27377;50.666;9.150;2023-01-29T08:34:04;-2.90;99.90
41694;DHT22;27377;50.666;9.150;2023-01-29T08:36:30;-2.90;99.90
41694;DHT22;27377;50.666;9.150;2023-01-29T08:38:56;-2.80;99.90
41694;DHT22;27377;50.666;9.150;2023-01-29T08:41:21;-2.80;99.90
41694;DHT22;27377;50.666;9.150;2023-01-29T08:43:47;-2.70;99.90
41694;DHT22;27377;50.666;9.150;2023-01-29T08:46:12;-2.70;99.90
41694;DHT22;27377;50.666;9.150;2023-01-29T08:48:38;-2.60;99.90
41694;DHT22;27377;50.666;9.150;2023-01-29T08:51:04;-2.60;99.90
41694;DHT22;27377;50.666;9.150;2023-01-29T08:53:30;-2.50;99.90
41694;DHT22;27377;50.666;9.150;2023-01-29T08:55:59;-2.50;99.90
41694;DHT22;27377;50.666;9.150;2023-01-29T08:58:24;-2.40;99.90
41694;DHT22;27377;50.666;9.150;2023-01-29T09:00:50;-2.40;99.90
41694;DHT22;27377;50.666;9.150;2023-01-29T09:03:15;-2.40;99.90
41694;DHT22;27377;50.666;9.150;2023-01-29T09:05:41;-2.40;99.90
41694;DHT22;27377;50.666;9.150;2023-01-29T09:08:08;-2.30;99.90
41694;DHT22;27377;50.666;9.150;2023-01-29T09:10:34;-2.30;99.90
41694;DHT22;27377;50.666;9.150;2023-01-29T09:13:00;-2.30;99.90
41694;DHT22;27377;50.666;9.150;2023-01-29T09:15:26;-2.30;99.90
41694;DHT22;27377;50.666;9.150;2023-01-29T09:17:52;-2.30;99.90
41694;DHT22;27377;50.666;9.150;2023-01-29T09:20:18;-2.20;99.90
41694;DHT22;27377;50.666;9.150;2023-01-29T09:22:44;-2.10;99.90
41694;DHT22;27377;50.666;9.150;2023-01-29T09:25:10;-2.00;99.90
41694;DHT22;27377;50.666;9.150;2023-01-29T09:27:36;-1.90;99.90
41694;DHT22;27377;50.666;9.150;2023-01-29T09:30:02;-1.90;99.90
41694;DHT22;27377;50.666;9.150;2023-01-29T09:32:28;-1.80;99.90
41694;DHT22;27377;50.666;9.150;2023-01-29T09:34:55;-1.70;99.90
41694;DHT22;27377;50.666;9.150;2023-01-29T09:37:21;-1.60;99.90
41694;DHT22;27377;50.666;9.150;2023-01-29T09:39:48;-1.60;99.90
41694;DHT22;27377;50.666;9.150;2023-01-29T09:42:43;-1.50;99.90
41694;DHT22;27377;50.666;9.150;2023-01-29T09:45:24;-1.50;99.90
41694;DHT22;27377;50.666;9.150;2023-01-29T09:47:51;-1.40;99.90
41694;DHT22;27377;50.666;9.150;2023-01-29T09:50:39;-1.40;99.90
41694;DHT22;27377;50.666;9.150;2023-01-29T09:53:20;-1.30;99.90
41694;DHT22;27377;50.666;9.150;2023-01-29T09:55:57;-1.30;99.90
41694;DHT22;27377;50.666;9.150;2023-01-29T09:58:34;-1.30;99.90
41694;DHT22;27377;50.666;9.150;2023-01-29T10:01:24;-1.20;99.90
41694;DHT22;27377;50.666;9.150;2023-01-29T10:12:29;-1.10;99.90
41694;DHT22;27377;50.666;9.150;2023-01-29T10:23:19;-1.00;99.90
41694;DHT22;27377;50.666;9.150;2023-01-29T10:25:47;-0.90;99.90
41694;DHT22;27377;50.666;9.150;2023-01-29T10:28:34;-0.80;99.90
41694;DHT22;27377;50.666;9.150;2023-01-29T10:31:10;-0.80;99.90
41694;DHT22;27377;50.666;9.150;2023-01-29T10:33:44;-0.80;99.90
41694;DHT22;27377;50.666;9.150;2023-01-29T10:36:17;-0.80;99.90
41694;DHT22;27377;50.666;9.150;2023-01-29T10:38:48;-0.70;99.90
41694;DHT22;27377;50.666;9.150;2023-01-29T10:44:27;-0.60;99.90
41694;DHT22;27377;50.666;9.150;2023-01-29T10:47:20;-0.60;99.90
41694;DHT22;27377;50.666;9.150;2023-01-29T11:00:57;-0.60;99.90
41694;DHT22;27377;50.666;9.150;2023-01-29T11:11:52;-0.50;99.90
41694;DHT22;27377;50.666;9.150;2023-01-29T11:14:25;-0.60;99.90
41694;DHT22;27377;50.666;9.150;2023-01-29T11:16:52;-0.50;99.90
41694;DHT22;27377;50.666;9.150;2023-01-29T11:19:44;-0.50;99.90
41694;DHT22;27377;50.666;9.150;2023-01-29T11:22:18;-0.50;99.90
41694;DHT22;27377;50.666;9.150;2023-01-29T11:24:45;-0.50;99.90
41694;DHT22;27377;50.666;9.150;2023-01-29T11:27:22;-0.40;99.90
41694;DHT22;27377;50.666;9.150;2023-01-29T11:29:51;-0.50;99.90
41694;DHT22;27377;50.666;9.150;2023-01-29T11:37:43;-0.40;99.90
41694;DHT22;27377;50.666;9.150;2023-01-29T11:42:47;-0.40;99.90
41694;DHT22;27377;50.666;9.150;2023-01-29T11:47:48;-0.30;99.90
41694;DHT22;27377;50.666;9.150;2023-01-29T11:50:22;-0.30;99.90
41694;DHT22;27377;50.666;9.150;2023-01-29T11:52:48;-0.30;99.90
41694;DHT22;27377;50.666;9.150;2023-01-29T11:55:26;-0.30;99.90
41694;DHT22;27377;50.666;9.150;2023-01-29T11:58:02;-0.30;99.90
41694;DHT22;27377;50.666;9.150;2023-01-29T12:00:31;-0.30;99.90
41694;DHT22;27377;50.666;9.150;2023-01-29T12:05:58;-0.30;99.90
41694;DHT22;27377;50.666;9.150;2023-01-29T12:08:30;-0.20;99.90
41694;DHT22;27377;50.666;9.150;2023-01-29T12:11:13;-0.30;99.90
41694;DHT22;27377;50.666;9.150;2023-01-29T12:13:41;-0.20;99.90
41694;DHT22;27377;50.666;9.150;2023-01-29T12:16:16;-0.30;99.90
41694;DHT22;27377;50.666;9.150;2023-01-29T12:19:09;-0.30;99.90
41694;DHT22;27377;50.666;9.150;2023-01-29T12:21:45;-0.30;99.90
41694;DHT22;27377;50.666;9.150;2023-01-29T12:26:53;-0.20;99.90
41694;DHT22;27377;50.666;9.150;2023-01-29T12:29:36;-0.30;99.90
41694;DHT22;27377;50.666;9.150;2023-01-29T12:32:19;-0.30;99.90
41694;DHT22;27377;50.666;9.150;2023-01-29T12:34:56;-0.20;99.90
41694;DHT22;27377;50.666;9.150;2023-01-29T12:37:40;-0.20;99.90
41694;DHT22;27377;50.666;9.150;2023-01-29T12:40:20;-0.20;99.90
41694;DHT22;27377;50.666;9.150;2023-01-29T12:42:53;-0.20;99.90
41694;DHT22;27377;50.666;9.150;2023-01-29T12:45:23;-0.20;99.90
41694;DHT22;27377;50.666;9.150;2023-01-29T12:48:00;-0.20;99.90
41694;DHT22;27377;50.666;9.150;2023-01-29T12:50:28;-0.20;99.90
41694;DHT22;27377;50.666;9.150;2023-01-29T12:55:33;-0.20;99.90
41694;DHT22;27377;50.666;9.150;2023-01-29T12:58:08;-0.20;99.90
41694;DHT22;27377;50.666;9.150;2023-01-29T13:00:42;-0.20;99.90
41694;DHT22;27377;50.666;9.150;2023-01-29T13:03:22;-0.20;99.90
41694;DHT22;27377;50.666;9.150;2023-01-29T13:05:58;-0.30;99.90
41694;DHT22;27377;50.666;9.150;2023-01-29T13:08:34;-0.20;99.90
41694;DHT22;27377;50.666;9.150;2023-01-29T13:11:06;-0.20;99.90
41694;DHT22;27377;50.666;9.150;2023-01-29T13:13:48;-0.20;99.90
41694;DHT22;27377;50.666;9.150;2023-01-29T13:16:22;-0.20;99.90
41694;DHT22;27377;50.666;9.150;2023-01-29T13:21:22;-0.20;99.90
41694;DHT22;27377;50.666;9.150;2023-01-29T13:23:56;-0.20;99.90
41694;DHT22;27377;50.666;9.150;2023-01-29T13:26:23;-0.20;99.90
41694;DHT22;27377;50.666;9.150;2023-01-29T13:28:51;-0.20;99.90
41694;DHT22;27377;50.666;9.150;2023-01-29T13:31:34;-0.20;99.90
41694;DHT22;27377;50.666;9.150;2023-01-29T13:34:13;-0.20;99.90
41694;DHT22;27377;50.666;9.150;2023-01-29T13:36:45;-0.20;99.90
41694;DHT22;27377;50.666;9.150;2023-01-29T13:39:30;-0.20;99.90
41694;DHT22;27377;50.666;9.150;2023-01-29T13:41:59;-0.20;99.90
41694;DHT22;27377;50.666;9.150;2023-01-29T13:44:37;-0.20;99.90
41694;DHT22;27377;50.666;9.150;2023-01-29T13:47:10;-0.20;99.90
41694;DHT22;27377;50.666;9.150;2023-01-29T13:49:43;-0.20;99.90
41694;DHT22;27377;50.666;9.150;2023-01-29T14:00:04;-0.10;99.90
41694;DHT22;27377;50.666;9.150;2023-01-29T14:02:33;-0.20;99.90
41694;DHT22;27377;50.666;9.150;2023-01-29T14:10:35;-0.20;99.90
41694;DHT22;27377;50.666;9.150;2023-01-29T14:18:27;-0.20;99.90
41694;DHT22;27377;50.666;9.150;2023-01-29T14:21:05;-0.20;99.90
41694;DHT22;27377;50.666;9.150;2023-01-29T14:26:23;-0.10;99.90
41694;DHT22;27377;50.666;9.150;2023-01-29T14:31:53;-0.20;99.90
41694;DHT22;27377;50.666;9.150;2023-01-29T14:37:02;-0.20;99.90
41694;DHT22;27377;50.666;9.150;2023-01-29T14:39:48;-0.20;99.90
41694;DHT22;27377;50.666;9.150;2023-01-29T14:42:25;-0.20;99.90
41694;DHT22;27377;50.666;9.150;2023-01-29T14:45:45;-0.20;99.90
41694;DHT22;27377;50.666;9.150;2023-01-29T14:53:19;-0.20;99.90
41694;DHT22;27377;50.666;9.150;2023-01-29T14:58:35;-0.20;99.90
41694;DHT22;27377;50.666;9.150;2023-01-29T15:01:05;-0.20;99.90
41694;DHT22;27377;50.666;9.150;2023-01-29T15:03:48;-0.20;99.90
41694;DHT22;27377;50.666;9.150;2023-01-29T15:06:18;-0.20;99.90
41694;DHT22;27377;50.666;9.150;2023-01-29T15:08:54;-0.20;99.90
41694;DHT22;27377;50.666;9.150;2023-01-29T15:11:31;-0.20;99.90
41694;DHT22;27377;50.666;9.150;2023-01-29T15:19:50;-0.20;99.90
41694;DHT22;27377;50.666;9.150;2023-01-29T15:22:21;-0.20;99.90
41694;DHT22;27377;50.666;9.150;2023-01-29T15:25:05;-0.20;99.90
41694;DHT22;27377;50.666;9.150;2023-01-29T15:27:32;-0.20;99.90
41694;DHT22;27377;50.666;9.150;2023-01-29T15:30:03;-0.20;99.90
41694;DHT22;27377;50.666;9.150;2023-01-29T15:32:31;-0.20;99.90
41694;DHT22;27377;50.666;9.150;2023-01-29T15:34:58;-0.20;99.90
41694;DHT22;27377;50.666;9.150;2023-01-29T15:37:30;-0.20;99.90
41694;DHT22;27377;50.666;9.150;2023-01-29T15:39:58;-0.20;99.90
41694;DHT22;27377;50.666;9.150;2023-01-29T15:42:26;-0.20;99.90
41694;DHT22;27377;50.666;9.150;2023-01-29T15:44:52;-0.20;99.90
41694;DHT22;27377;50.666;9.150;2023-01-29T15:47:29;-0.20;99.90
41694;DHT22;27377;50.666;9.150;2023-01-29T15:49:55;-0.20;99.90
41694;DHT22;27377;50.666;9.150;2023-01-29T15:52:29;-0.20;99.90
41694;DHT22;27377;50.666;9.150;2023-01-29T15:55:02;-0.30;99.90
41694;DHT22;27377;50.666;9.150;2023-01-29T15:57:34;-0.20;99.90
41694;DHT22;27377;50.666;9.150;2023-01-29T16:00:03;-0.30;99.90
41694;DHT22;27377;50.666;9.150;2023-01-29T16:02:39;-0.30;99.90
41694;DHT22;27377;50.666;9.150;2023-01-29T16:05:10;-0.30;99.90
41694;DHT22;27377;50.666;9.150;2023-01-29T16:07:38;-0.30;99.90
41694;DHT22;27377;50.666;9.150;2023-01-29T16:10:05;-0.30;99.90
41694;DHT22;27377;50.666;9.150;2023-01-29T16:12:32;-0.30;99.90
41694;DHT22;27377;50.666;9.150;2023-01-29T16:14:59;-0.30;99.90
41694;DHT22;27377;50.666;9.150;2023-01-29T16:17:30;-0.30;99.90
41694;DHT22;27377;50.666;9.150;2023-01-29T16:20:06;-0.30;99.90
41694;DHT22;27377;50.666;9.150;2023-01-29T16:22:45;-0.30;99.90
41694;DHT22;27377;50.666;9.150;2023-01-29T16:25:13;-0.20;99.90
41694;DHT22;27377;50.666;9.150;2023-01-29T16:27:39;-0.20;99.90
41694;DHT22;27377;50.666;9.150;2023-01-29T16:30:09;-0.30;99.90
41694;DHT22;27377;50.666;9.150;2023-01-29T16:32:35;-0.30;99.90
41694;DHT22;27377;50.666;9.150;2023-01-29T16:35:00;-0.30;99.90
41694;DHT22;27377;50.666;9.150;2023-01-29T16:37:32;-0.30;99.90
41694;DHT22;27377;50.666;9.150;2023-01-29T16:40:12;-0.30;99.90
41694;DHT22;27377;50.666;9.150;2023-01-29T16:42:38;-0.30;99.90
41694;DHT22;27377;50.666;9.150;2023-01-29T16:45:25;-0.20;99.90
41694;DHT22;27377;50.666;9.150;2023-01-29T16:48:19;-0.20;99.90
41694;DHT22;27377;50.666;9.150;2023-01-29T16:50:47;-0.20;99.90
41694;DHT22;27377;50.666;9.150;2023-01-29T16:53:18;-0.20;99.90
41694;DHT22;27377;50.666;9.150;2023-01-29T16:55:49;-0.30;99.90
41694;DHT22;27377;50.666;9.150;2023-01-29T16:58:21;-0.30;99.90
41694;DHT22;27377;50.666;9.150;2023-01-29T17:00:51;-0.30;99.90
41694;DHT22;27377;50.666;9.150;2023-01-29T17:03:18;-0.30;99.90
41694;DHT22;27377;50.666;9.150;2023-01-29T17:05:44;-0.30;99.90
41694;DHT22;27377;50.666;9.150;2023-01-29T17:10:46;-0.30;99.90
41694;DHT22;27377;50.666;9.150;2023-01-29T17:13:20;-0.30;99.90
41694;DHT22;27377;50.666;9.150;2023-01-29T17:15:47;-0.30;99.90
41694;DHT22;27377;50.666;9.150;2023-01-29T17:18:22;-0.20;99.90
41694;DHT22;27377;50.666;9.150;2023-01-29T17:20:48;-0.20;99.90
41694;DHT22;27377;50.666;9.150;2023-01-29T17:23:14;-0.20;99.90
41694;DHT22;27377;50.666;9.150;2023-01-29T17:25:40;-0.20;99.90
41694;DHT22;27377;50.666;9.150;2023-01-29T17:28:06;-0.20;99.90
41694;DHT22;27377;50.666;9.150;2023-01-29T17:30:33;-0.20;99.90
41694;DHT22;27377;50.666;9.150;2023-01-29T17:35:36;-0.20;99.90
41694;DHT22;27377;50.666;9.150;2023-01-29T17:38:02;-0.20;99.90
41694;DHT22;27377;50.666;9.150;2023-01-29T17:41:02;-0.20;99.90
41694;DHT22;27377;50.666;9.150;2023-01-29T17:43:25;-0.20;99.90
41694;DHT22;27377;50.666;9.150;2023-01-29T17:45:51;-0.20;99.90
41694;DHT22;27377;50.666;9.150;2023-01-29T17:48:22;-0.20;99.90
41694;DHT22;27377;50.666;9.150;2023-01-29T17:50:50;-0.20;99.90
41694;DHT22;27377;50.666;9.150;2023-01-29T17:53:18;-0.20;99.90
41694;DHT22;27377;50.666;9.150;2023-01-29T17:55:44;-0.20;99.90
41694;DHT22;27377;50.666;9.150;2023-01-29T18:00:39;-0.20;99.90
41694;DHT22;27377;50.666;9.150;2023-01-29T18:03:05;-0.20;99.90
41694;DHT22;27377;50.666;9.150;2023-01-29T18:05:30;-0.20;99.90
41694;DHT22;27377;50.666;9.150;2023-01-29T18:07:56;-0.20;99.90